Almond, Wisconsin
Current Conditions -  °F | °C
As of 9:56 PM on Saturday 24 Jan 2015 (Local Time) from KY50 Reporting Station
Overcast Overcast  
Wind Chill: 32°   Ceiling: 5500
Heat Index: 32°   Visibility: 8mi
Dew Point: 32°   Wind: 0mph
Humidity: 100%   Direction: NA
Pressure: 29.67"   Gusts: NA
Location:  44.26°N, 89.41°W
Report Text: KY50 250356Z AUTO 00000KT 8SM FEW044 OVC055 00/00 A2967 RMK AO2 TSNO T00000000 UPE41 P0000 SLP052
Loading
Personal Weather Stations






























Interactive Weather Map New forecast layout! Learn more

10-Day Weather Forecast

Advertisements
Track Severe Weather on mobile